weather.gov     
National Weather Service

Terminal Aerodrome Forecast
NWS Homepage
This page is being discontinued on March 12, 2014.
The same data is available at this site. Please update your bookmarks.
Thank you, and we apologize for the inconvenience.
Please send an email to SR-SRH.Webmaster@noaa.gov with any concerns.


Current Version
Previous Version:    01  02  03  04  05  06  07  08  09  10  11  12  13  14  15  16  17  18  19  20  21  22  23  
[Printable]
401
FTUS42 KMLB 242300
TAFISM
TAF
KISM 242320Z 2500/2524 12011KT P6SM VCSH BKN060 BKN080
     FM250200 VRB03KT P6SM FEW030 SCT080
      TEMPO 2510/2513 5SM BR SCT005
     FM251400 25005KT P6SM SKC
      AMD NOT SKED 2502/2511=


U.S. Dept. of Commerce
NOAA National Weather Service
1325 East West Highway
Silver Spring, MD 20910
E-mail: w-nws.webmaster@noaa.gov
Page last modified: May 16, 2007
NATIONAL WEATHER SERVICE: for Safety, for Work, for Fun - FOR LIFE